createdAt,value
2018-02-01T00:02:06.104Z,7.71
2018-02-01T00:04:34.454Z,7.69
2018-02-01T00:07:02.766Z,7.62
2018-02-01T00:09:31.122Z,7.56
2018-02-01T00:11:59.466Z,7.52
2018-02-01T00:14:27.818Z,7.51
2018-02-01T00:16:56.930Z,7.50
2018-02-01T00:19:25.283Z,7.51
2018-02-01T00:21:53.615Z,7.50
2018-02-01T00:24:21.991Z,7.50
2018-02-01T00:26:50.318Z,7.50
2018-02-01T00:29:18.634Z,7.50
2018-02-01T00:31:47.018Z,7.52
2018-02-01T00:34:15.354Z,7.53
2018-02-01T00:36:44.478Z,7.55
2018-02-01T00:39:12.798Z,7.58
2018-02-01T00:41:41.145Z,7.63
2018-02-01T00:44:09.518Z,7.62
2018-02-01T00:46:37.846Z,7.63
2018-02-01T00:49:06.202Z,7.66
2018-02-01T00:51:34.517Z,7.66
2018-02-01T00:54:03.640Z,7.66
2018-02-01T00:56:31.962Z,7.67
2018-02-01T00:59:00.290Z,7.70
2018-02-01T01:01:28.634Z,7.69
2018-02-01T01:03:56.953Z,7.67
2018-02-01T01:06:25.297Z,7.66
2018-02-01T01:08:53.626Z,7.62
2018-02-01T01:11:21.964Z,7.55
2018-02-01T01:13:51.058Z,7.52
2018-02-01T01:16:20.171Z,7.53
2018-02-01T01:18:48.540Z,7.54
2018-02-01T01:21:16.898Z,7.54
2018-02-01T01:23:45.998Z,7.55
2018-02-01T01:26:15.078Z,7.55
2018-02-01T01:28:44.203Z,7.57
2018-02-01T01:31:12.553Z,7.57
2018-02-01T01:33:41.641Z,7.58
2018-02-01T01:36:09.981Z,7.62
2018-02-01T01:38:38.293Z,7.68
2018-02-01T01:41:06.649Z,7.72
2018-02-01T01:43:35.015Z,7.77
2018-02-01T01:46:11.153Z,7.79
2018-02-01T01:48:39.477Z,7.76
2018-02-01T01:51:07.825Z,7.71
2018-02-01T01:53:36.500Z,7.72
2018-02-01T01:56:04.829Z,7.70
2018-02-01T01:58:33.155Z,7.80
2018-02-01T02:01:01.514Z,7.75
2018-02-01T02:03:29.865Z,7.71
2018-02-01T02:05:58.189Z,7.49
2018-02-01T02:08:26.540Z,7.41
2018-02-01T02:10:55.664Z,7.39
2018-02-01T02:13:23.981Z,7.46
2018-02-01T02:15:52.361Z,7.40
2018-02-01T02:18:20.701Z,7.42
2018-02-01T02:20:49.085Z,7.45
2018-02-01T02:23:17.401Z,7.42
2018-02-01T02:25:45.740Z,7.23
2018-02-01T02:28:14.085Z,7.17
2018-02-01T02:30:42.397Z,7.11
2018-02-01T02:33:10.742Z,7.13
2018-02-01T02:35:39.087Z,7.16
2018-02-01T02:38:10.565Z,7.13
2018-02-01T02:40:38.921Z,7.10
2018-02-01T02:43:08.009Z,7.07
2018-02-01T02:45:36.362Z,6.98
2018-02-01T02:48:04.706Z,6.85
2018-02-01T02:50:33.033Z,6.90
2018-02-01T02:53:01.353Z,6.87
2018-02-01T02:55:29.700Z,6.80
2018-02-01T02:57:58.784Z,6.79
2018-02-01T03:00:27.209Z,6.73
2018-02-01T03:02:55.548Z,6.70
2018-02-01T03:05:23.862Z,6.69
2018-02-01T03:07:52.624Z,6.68
2018-02-01T03:10:21.749Z,6.63
2018-02-01T03:12:50.086Z,6.63
2018-02-01T03:15:18.393Z,6.51
2018-02-01T03:17:46.738Z,6.57
2018-02-01T03:20:15.048Z,6.60
2018-02-01T03:22:43.353Z,6.59
2018-02-01T03:25:11.693Z,6.47
2018-02-01T03:27:40.781Z,6.46
2018-02-01T03:30:09.893Z,6.43
2018-02-01T03:32:38.269Z,6.43
2018-02-01T03:35:06.581Z,6.46
2018-02-01T03:38:02.870Z,6.45
2018-02-01T03:40:31.952Z,6.34
2018-02-01T03:43:01.065Z,6.36
2018-02-01T03:45:29.382Z,6.32
2018-02-01T03:47:57.728Z,6.28
2018-02-01T03:50:26.040Z,6.27
2018-02-01T03:52:54.417Z,6.25
2018-02-01T03:55:22.748Z,6.23
2018-02-01T03:57:51.097Z,6.21
2018-02-01T04:00:19.464Z,6.19
2018-02-01T04:02:47.829Z,6.13
2018-02-01T04:05:16.148Z,6.18
2018-02-01T04:07:45.228Z,6.06
2018-02-01T04:10:13.577Z,5.87
2018-02-01T04:12:41.940Z,5.75
2018-02-01T04:15:10.304Z,5.65
2018-02-01T04:17:38.638Z,5.63
2018-02-01T04:20:07.000Z,5.60
2018-02-01T04:22:35.359Z,5.54
2018-02-01T04:25:03.824Z,5.45
2018-02-01T04:27:32.912Z,5.47
2018-02-01T04:30:01.364Z,5.43
2018-02-01T04:32:29.704Z,5.43
2018-02-01T04:34:58.036Z,5.42
2018-02-01T04:37:27.364Z,5.46
2018-02-01T04:39:55.680Z,5.48
2018-02-01T04:42:24.061Z,5.49
2018-02-01T04:44:52.390Z,5.48
2018-02-01T04:47:20.740Z,5.50
2018-02-01T04:49:49.856Z,5.54
2018-02-01T04:52:18.211Z,5.62
2018-02-01T04:54:46.581Z,5.60
2018-02-01T04:57:15.656Z,5.54
2018-02-01T04:59:44.638Z,5.48
2018-02-01T05:02:12.956Z,5.50
2018-02-01T05:04:41.312Z,5.49
2018-02-01T05:07:09.636Z,5.50
2018-02-01T05:09:37.969Z,5.50
2018-02-01T05:12:07.100Z,5.55
2018-02-01T05:14:35.596Z,5.52
2018-02-01T05:17:03.964Z,5.51
2018-02-01T05:19:32.348Z,5.48
2018-02-01T05:22:00.704Z,5.43
2018-02-01T05:24:29.043Z,5.42
2018-02-01T05:26:57.365Z,5.51
2018-02-01T05:29:25.693Z,5.44
2018-02-01T05:31:54.013Z,5.37
2018-02-01T05:34:22.337Z,5.25
2018-02-01T05:36:50.631Z,5.23
2018-02-01T05:39:18.981Z,5.19
2018-02-01T05:41:47.311Z,5.20
2018-02-01T05:44:15.625Z,5.10
2018-02-01T05:46:43.961Z,5.03
2018-02-01T05:49:13.033Z,4.95
2018-02-01T05:51:41.414Z,4.90
2018-02-01T05:54:09.713Z,4.81
2018-02-01T05:56:38.820Z,4.78
2018-02-01T05:59:07.153Z,4.74
2018-02-01T06:01:35.569Z,4.71
2018-02-01T06:04:03.874Z,4.69
2018-02-01T06:06:32.228Z,4.76
2018-02-01T06:09:00.529Z,4.78
2018-02-01T06:11:28.885Z,4.80
2018-02-01T06:13:57.210Z,4.79
2018-02-01T06:16:25.513Z,4.77
2018-02-01T06:18:53.841Z,4.78
2018-02-01T06:21:22.129Z,4.79
2018-02-01T06:23:50.453Z,4.77
2018-02-01T06:26:18.800Z,4.74
2018-02-01T06:28:47.140Z,4.76
2018-02-01T06:31:15.432Z,4.77
2018-02-01T06:33:43.776Z,4.79
2018-02-01T06:36:12.104Z,4.74
2018-02-01T06:38:40.404Z,4.73
2018-02-01T06:41:08.728Z,4.73
2018-02-01T06:43:37.029Z,4.73
2018-02-01T06:46:06.164Z,4.72
2018-02-01T06:48:35.232Z,4.72
2018-02-01T06:51:03.568Z,4.76
2018-02-01T06:53:31.868Z,4.77
2018-02-01T06:56:00.220Z,4.79
2018-02-01T06:58:29.288Z,4.81
2018-02-01T07:00:58.915Z,4.83
2018-02-01T07:03:27.960Z,4.85
2018-02-01T07:05:57.060Z,4.90
2018-02-01T07:08:25.364Z,4.88
2018-02-01T07:10:53.740Z,4.92
2018-02-01T07:13:22.079Z,5.00
2018-02-01T07:15:50.407Z,4.98
2018-02-01T07:18:18.750Z,5.04
2018-02-01T07:20:47.105Z,5.13
2018-02-01T07:23:15.419Z,5.22
2018-02-01T07:25:44.563Z,5.33
2018-02-01T07:28:12.900Z,5.35
2018-02-01T07:30:41.279Z,5.39
2018-02-01T07:33:09.587Z,5.39
2018-02-01T07:35:37.938Z,5.40
2018-02-01T07:38:06.309Z,5.45
2018-02-01T07:40:35.399Z,5.43
2018-02-01T07:43:04.527Z,5.51
2018-02-01T07:45:33.822Z,5.41
2018-02-01T07:48:02.139Z,5.52
2018-02-01T07:50:30.559Z,5.46
2018-02-01T07:52:58.875Z,5.35
2018-02-01T07:55:27.195Z,5.39
2018-02-01T07:57:56.303Z,5.41
2018-02-01T08:00:25.386Z,5.38
2018-02-01T08:02:54.511Z,5.43
2018-02-01T08:05:22.820Z,5.47
2018-02-01T08:07:51.931Z,5.57
2018-02-01T08:10:20.247Z,5.66
2018-02-01T08:12:48.584Z,5.60
2018-02-01T08:15:16.894Z,5.71
2018-02-01T08:17:46.370Z,5.82
2018-02-01T08:20:14.716Z,5.86
2018-02-01T08:22:43.430Z,5.91
2018-02-01T08:25:11.790Z,6.06
2018-02-01T08:27:40.099Z,6.30
2018-02-01T08:30:08.463Z,6.59
2018-02-01T08:32:36.844Z,6.67
2018-02-01T08:35:05.160Z,6.93
2018-02-01T08:37:33.475Z,7.03
2018-02-01T08:40:01.848Z,6.99
2018-02-01T08:42:30.206Z,7.12
2018-02-01T08:44:58.570Z,7.09
2018-02-01T08:47:26.878Z,6.84
2018-02-01T08:49:55.186Z,7.05
2018-02-01T08:52:23.550Z,7.17
2018-02-01T08:54:51.875Z,7.23
2018-02-01T08:57:20.258Z,7.10
2018-02-01T08:59:48.602Z,6.85
2018-02-01T09:02:16.990Z,7.09
2018-02-01T09:04:46.086Z,7.28
2018-02-01T09:07:15.202Z,7.39
2018-02-01T09:09:43.566Z,7.09
2018-02-01T09:12:12.686Z,7.38
2018-02-01T09:14:41.034Z,7.67
2018-02-01T09:17:10.171Z,7.73
2018-02-01T09:19:38.481Z,7.75
2018-02-01T09:22:06.802Z,7.99
2018-02-01T09:24:35.153Z,8.11
2018-02-01T09:27:04.242Z,8.47
2018-02-01T09:29:32.570Z,8.34
2018-02-01T09:32:00.923Z,8.43
2018-02-01T09:34:29.642Z,8.45
2018-02-01T09:36:57.998Z,8.45
2018-02-01T09:39:26.342Z,8.38
2018-02-01T09:41:54.697Z,8.18
2018-02-01T09:44:23.021Z,8.16
2018-02-01T09:46:51.411Z,8.17
2018-02-01T09:49:19.770Z,8.26
2018-02-01T09:51:48.854Z,8.27
2018-02-01T09:54:17.957Z,8.41
2018-02-01T09:56:47.038Z,8.65
2018-02-01T09:59:15.385Z,8.80
2018-02-01T10:01:43.722Z,8.53
2018-02-01T10:04:12.068Z,8.29
2018-02-01T10:06:40.413Z,8.18
2018-02-01T10:09:08.733Z,8.29
2018-02-01T10:11:37.856Z,8.49
2018-02-01T10:14:06.181Z,8.48
2018-02-01T10:16:34.540Z,8.57
2018-02-01T10:19:02.884Z,8.76
2018-02-01T10:21:31.195Z,8.59
2018-02-01T10:23:59.555Z,8.82
2018-02-01T10:26:27.909Z,9.00
2018-02-01T10:28:56.266Z,8.96
2018-02-01T10:31:25.359Z,9.09
2018-02-01T10:33:53.699Z,8.72
2018-02-01T10:36:22.061Z,8.53
2018-02-01T10:38:50.377Z,8.69
2018-02-01T10:41:18.733Z,8.81
2018-02-01T10:43:47.085Z,8.39
2018-02-01T10:46:15.405Z,8.56
2018-02-01T10:48:43.761Z,8.61
2018-02-01T10:51:12.109Z,8.48
2018-02-01T10:53:41.237Z,8.46
2018-02-01T10:56:09.589Z,8.49
2018-02-01T10:58:37.901Z,8.83
2018-02-01T11:01:06.262Z,8.89
2018-02-01T11:03:34.575Z,8.94
2018-02-01T11:06:02.925Z,8.87
2018-02-01T11:08:31.285Z,8.98
2018-02-01T11:10:59.637Z,9.04
2018-02-01T11:13:27.991Z,8.99
2018-02-01T11:15:56.305Z,9.01
2018-02-01T11:18:24.645Z,8.65
2018-02-01T11:20:52.989Z,8.38
2018-02-01T11:23:21.345Z,8.64
2018-02-01T11:25:49.669Z,8.71
2018-02-01T11:28:18.005Z,8.61
2018-02-01T11:30:46.348Z,8.87
2018-02-01T11:33:15.425Z,8.99
2018-02-01T11:35:43.830Z,8.91
2018-02-01T11:38:12.184Z,8.69
2018-02-01T11:40:40.538Z,8.67
2018-02-01T11:43:08.886Z,8.73
2018-02-01T11:45:37.225Z,8.64
2018-02-01T11:48:06.342Z,8.72
2018-02-01T11:50:34.662Z,8.79
2018-02-01T11:53:03.049Z,8.63
2018-02-01T11:55:31.376Z,8.59
2018-02-01T11:57:59.709Z,8.84
2018-02-01T12:00:28.058Z,8.66
2018-02-01T12:02:56.385Z,8.81
2018-02-01T12:05:25.506Z,8.31
2018-02-01T12:07:53.832Z,8.46
2018-02-01T12:10:22.178Z,8.47
2018-02-01T12:12:50.490Z,8.37
2018-02-01T12:15:18.846Z,8.48
2018-02-01T12:17:47.176Z,8.57
2018-02-01T12:20:16.312Z,8.67
2018-02-01T12:22:44.632Z,8.38
2018-02-01T12:25:13.025Z,8.61
2018-02-01T12:27:42.125Z,8.60
2018-02-01T12:30:10.437Z,8.62
2018-02-01T12:32:38.796Z,8.61
2018-02-01T12:35:07.128Z,8.45
2018-02-01T12:37:35.488Z,8.37
2018-02-01T12:40:03.804Z,8.48
2018-02-01T12:42:32.988Z,8.59
2018-02-01T12:45:01.316Z,8.50
2018-02-01T12:47:29.672Z,8.58
2018-02-01T12:49:57.993Z,8.36
2018-02-01T12:52:26.340Z,8.38
2018-02-01T12:54:54.648Z,8.49
2018-02-01T12:57:23.004Z,8.40
2018-02-01T12:59:51.364Z,8.37
2018-02-01T13:02:19.728Z,8.09
2018-02-01T13:04:48.048Z,7.93
2018-02-01T13:07:17.156Z,7.68
2018-02-01T13:09:45.912Z,7.46
2018-02-01T13:12:14.996Z,7.52
2018-02-01T13:14:43.396Z,7.54
2018-02-01T13:17:11.723Z,7.48
2018-02-01T13:19:40.866Z,7.30
2018-02-01T13:22:09.198Z,7.23
2018-02-01T13:24:38.269Z,7.13
2018-02-01T13:27:06.628Z,7.22
2018-02-01T13:29:34.992Z,7.09
2018-02-01T13:32:03.464Z,7.19
2018-02-01T13:34:31.777Z,7.40
2018-02-01T13:37:00.504Z,7.38
2018-02-01T13:39:28.856Z,7.06
2018-02-01T13:41:57.165Z,7.14
2018-02-01T13:44:25.564Z,7.06
2018-02-01T13:46:53.872Z,6.84
2018-02-01T13:49:22.228Z,6.75
2018-02-01T13:51:50.550Z,6.89
2018-02-01T13:54:18.888Z,6.91
2018-02-01T13:56:47.232Z,6.88
2018-02-01T13:59:15.551Z,6.86
2018-02-01T14:01:43.908Z,6.80
2018-02-01T14:04:12.226Z,6.78
2018-02-01T14:06:40.565Z,6.65
2018-02-01T14:09:08.872Z,6.65
2018-02-01T14:11:37.228Z,6.42
2018-02-01T14:14:05.563Z,6.41
2018-02-01T14:16:33.941Z,6.39
2018-02-01T14:19:02.306Z,6.35
2018-02-01T14:21:31.432Z,6.41
2018-02-01T14:23:59.759Z,6.42
2018-02-01T14:26:28.120Z,6.35
2018-02-01T14:28:56.452Z,6.36
2018-02-01T14:31:24.817Z,6.29
2018-02-01T14:33:53.916Z,6.13
2018-02-01T14:36:23.095Z,6.09
2018-02-01T14:38:52.304Z,6.06
2018-02-01T14:41:21.431Z,6.01
2018-02-01T14:43:49.764Z,5.87
2018-02-01T14:46:18.141Z,5.80
2018-02-01T14:48:46.460Z,5.79
2018-02-01T14:51:14.783Z,5.80
2018-02-01T14:53:43.152Z,5.66
2018-02-01T14:56:11.529Z,5.66
2018-02-01T14:58:39.911Z,5.61
2018-02-01T15:01:08.263Z,5.55
2018-02-01T15:03:36.621Z,5.47
2018-02-01T15:06:04.945Z,5.46
2018-02-01T15:08:33.311Z,5.41
2018-02-01T15:11:01.699Z,5.41
2018-02-01T15:13:30.143Z,5.39
2018-02-01T15:15:59.255Z,5.29
2018-02-01T15:18:27.635Z,5.17
2018-02-01T15:20:55.948Z,5.11
2018-02-01T15:23:24.376Z,5.08
2018-02-01T15:25:52.753Z,5.03
2018-02-01T15:28:21.112Z,4.93
2018-02-01T15:30:49.497Z,4.83
2018-02-01T15:33:17.820Z,4.77
2018-02-01T15:35:46.155Z,4.70
2018-02-01T15:38:14.511Z,4.65
2018-02-01T15:40:43.631Z,4.63
2018-02-01T15:43:12.372Z,4.60
2018-02-01T15:45:40.695Z,4.53
2018-02-01T15:48:09.080Z,4.46
2018-02-01T15:50:37.456Z,4.46
2018-02-01T15:53:05.799Z,4.44
2018-02-01T15:55:34.879Z,4.40
2018-02-01T15:58:03.247Z,4.35
2018-02-01T16:00:33.106Z,4.32
2018-02-01T16:03:01.480Z,4.24
2018-02-01T16:05:29.792Z,4.11
2018-02-01T16:07:58.178Z,4.09
2018-02-01T16:10:26.556Z,4.08
2018-02-01T16:12:54.899Z,4.04
2018-02-01T16:15:23.266Z,4.00
2018-02-01T16:17:51.615Z,3.99
2018-02-01T16:20:20.722Z,3.95
2018-02-01T16:22:50.584Z,3.95
2018-02-01T16:25:18.954Z,3.93
2018-02-01T16:27:47.674Z,3.91
2018-02-01T16:30:16.016Z,3.89
2018-02-01T16:32:44.564Z,3.88
2018-02-01T16:35:14.612Z,3.84
2018-02-01T16:37:42.959Z,3.78
2018-02-01T16:40:11.724Z,3.81
2018-02-01T16:42:40.140Z,3.75
2018-02-01T16:45:09.246Z,3.74
2018-02-01T16:47:37.658Z,3.75
2018-02-01T16:50:06.827Z,3.76
2018-02-01T16:52:35.167Z,3.73
2018-02-01T16:55:03.543Z,3.67
2018-02-01T16:57:32.645Z,3.58
2018-02-01T17:00:01.787Z,3.51
2018-02-01T17:02:30.147Z,3.45
2018-02-01T17:04:58.554Z,3.42
2018-02-01T17:07:26.897Z,3.37
2018-02-01T17:09:56.863Z,3.32
2018-02-01T17:12:25.199Z,3.29
2018-02-01T17:14:53.548Z,3.26
2018-02-01T17:17:22.744Z,3.22
2018-02-01T17:19:52.473Z,3.17
2018-02-01T17:22:20.866Z,3.14
2018-02-01T17:24:49.206Z,3.12
2018-02-01T17:27:19.123Z,3.10
2018-02-01T17:29:48.240Z,3.13
2018-02-01T17:32:16.632Z,3.05
2018-02-01T17:34:45.399Z,3.01
2018-02-01T17:37:13.801Z,2.97
2018-02-01T17:39:42.139Z,2.98
2018-02-01T17:42:11.268Z,2.98
2018-02-01T17:44:39.619Z,2.98
2018-02-01T17:47:08.814Z,2.92
2018-02-01T17:49:37.911Z,2.86
2018-02-01T17:52:07.035Z,2.83
2018-02-01T17:54:35.360Z,2.78
2018-02-01T17:57:05.186Z,2.77
2018-02-01T17:59:35.231Z,2.77
2018-02-01T18:02:03.602Z,2.74
2018-02-01T18:04:31.992Z,2.74
2018-02-01T18:07:00.712Z,2.70
2018-02-01T18:09:29.187Z,2.72
2018-02-01T18:11:57.571Z,2.73
2018-02-01T18:14:27.486Z,2.73
2018-02-01T18:16:55.803Z,2.64
2018-02-01T18:19:25.688Z,2.58
2018-02-01T18:21:54.057Z,2.54
2018-02-01T18:24:23.986Z,2.56
2018-02-01T18:26:52.398Z,2.61
2018-02-01T18:29:21.501Z,2.56
2018-02-01T18:31:50.865Z,2.53
2018-02-01T18:34:19.975Z,2.55
2018-02-01T18:36:50.141Z,2.55
2018-02-01T18:39:19.283Z,2.52
2018-02-01T18:41:48.875Z,2.50
2018-02-01T18:44:17.238Z,2.43
2018-02-01T18:46:45.771Z,2.44
2018-02-01T18:49:15.541Z,2.32
2018-02-01T18:51:44.831Z,2.32
2018-02-01T18:54:13.938Z,2.25
2018-02-01T18:56:43.713Z,2.21
2018-02-01T18:59:12.110Z,2.18
2018-02-01T19:01:40.434Z,2.15
2018-02-01T19:04:10.141Z,2.06
2018-02-01T19:06:40.058Z,2.16
2018-02-01T19:09:10.153Z,2.29
2018-02-01T19:11:42.800Z,2.34
2018-02-01T19:14:14.179Z,2.25
2018-02-01T19:16:42.601Z,2.13
2018-02-01T19:19:11.729Z,2.10
2018-02-01T19:21:40.203Z,1.99
2018-02-01T19:24:08.597Z,2.00
2018-02-01T19:26:36.954Z,1.90
2018-02-01T19:29:06.041Z,1.87
2018-02-01T19:31:34.437Z,1.86
2018-02-01T19:34:03.605Z,1.81
2018-02-01T19:36:32.129Z,1.81
2018-02-01T19:39:00.458Z,1.80
2018-02-01T19:41:29.653Z,1.83
2018-02-01T19:43:58.057Z,1.82
2018-02-01T19:46:26.551Z,1.75
2018-02-01T19:48:55.628Z,1.73
2018-02-01T19:51:24.766Z,1.69
2018-02-01T19:53:53.937Z,1.58
2018-02-01T19:56:23.102Z,1.48
2018-02-01T19:58:51.474Z,1.49
2018-02-01T20:01:19.886Z,1.48
2018-02-01T20:03:48.248Z,1.40
2018-02-01T20:06:16.981Z,1.39
2018-02-01T20:08:45.353Z,1.31
2018-02-01T20:11:13.736Z,1.39
2018-02-01T20:13:42.486Z,1.33
2018-02-01T20:16:10.893Z,1.25
2018-02-01T20:18:39.241Z,1.29
2018-02-01T20:21:08.853Z,1.26
2018-02-01T20:23:37.832Z,1.30
2018-02-01T20:26:07.013Z,1.21
2018-02-01T20:28:36.220Z,1.17
2018-02-01T20:31:04.694Z,1.09
2018-02-01T20:33:34.038Z,0.96
2018-02-01T20:36:03.218Z,0.97
2018-02-01T20:38:33.298Z,0.99
2018-02-01T20:41:02.134Z,0.94
2018-02-01T20:43:30.512Z,0.96
2018-02-01T20:46:03.992Z,0.99
2018-02-01T20:48:32.480Z,0.93
2018-02-01T20:51:01.656Z,0.98
2018-02-01T20:53:30.032Z,0.98
2018-02-01T20:55:58.586Z,0.92
2018-02-01T20:58:27.733Z,0.88
2018-02-01T21:00:56.956Z,0.98
2018-02-01T21:03:26.193Z,1.17
2018-02-01T21:05:57.669Z,1.15
2018-02-01T21:08:27.494Z,0.95
2018-02-01T21:10:55.844Z,0.97
2018-02-01T21:13:24.209Z,0.98
2018-02-01T21:15:52.576Z,0.93
2018-02-01T21:18:21.724Z,0.88
2018-02-01T21:20:50.096Z,0.88
2018-02-01T21:23:18.537Z,0.83
2018-02-01T21:25:47.631Z,0.74
2018-02-01T21:28:17.478Z,0.78
2018-02-01T21:30:46.227Z,0.85
2018-02-01T21:33:15.348Z,0.87
2018-02-01T21:35:44.596Z,0.85
2018-02-01T21:38:12.924Z,0.89
2018-02-01T21:40:41.277Z,0.78
2018-02-01T21:43:10.365Z,0.91
2018-02-01T21:45:38.712Z,0.92
2018-02-01T21:48:07.072Z,0.87
2018-02-01T21:50:35.492Z,0.81
2018-02-01T21:53:03.830Z,0.77
2018-02-01T21:55:32.208Z,0.83
2018-02-01T21:58:01.988Z,0.79
2018-02-01T22:00:30.604Z,0.74
2018-02-01T22:02:59.163Z,0.72
2018-02-01T22:05:27.547Z,0.79
2018-02-01T22:07:55.916Z,0.73
2018-02-01T22:10:25.029Z,0.61
2018-02-01T22:12:53.372Z,0.57
2018-02-01T22:15:22.504Z,0.54
2018-02-01T22:17:50.869Z,0.52
2018-02-01T22:20:19.234Z,0.55
2018-02-01T22:22:48.732Z,0.57
2018-02-01T22:25:18.635Z,0.51
2018-02-01T22:27:47.408Z,0.59
2018-02-01T22:30:16.159Z,0.64
2018-02-01T22:32:44.548Z,0.69
2018-02-01T22:35:13.768Z,0.72
2018-02-01T22:37:42.127Z,0.71
2018-02-01T22:40:10.857Z,0.88
2018-02-01T22:42:40.003Z,0.86
2018-02-01T22:45:08.331Z,0.91
2018-02-01T22:47:37.457Z,0.91
2018-02-01T22:50:05.820Z,0.86
2018-02-01T22:52:34.539Z,0.93
2018-02-01T22:55:03.303Z,0.94
2018-02-01T22:57:31.697Z,0.83
2018-02-01T23:00:00.038Z,0.79
2018-02-01T23:02:28.387Z,0.87
2018-02-01T23:04:57.557Z,0.90
2018-02-01T23:07:25.891Z,0.79
2018-02-01T23:09:54.971Z,0.79
2018-02-01T23:12:24.115Z,0.82
2018-02-01T23:14:52.489Z,0.81
2018-02-01T23:17:20.831Z,0.76
2018-02-01T23:19:49.957Z,0.72
2018-02-01T23:22:18.329Z,0.73
2018-02-01T23:24:46.659Z,0.61
2018-02-01T23:27:15.029Z,0.59
2018-02-01T23:29:43.587Z,0.56
2018-02-01T23:32:11.931Z,0.57
2018-02-01T23:34:41.059Z,0.59
2018-02-01T23:37:09.454Z,0.49
2018-02-01T23:39:37.811Z,0.43
2018-02-01T23:42:06.183Z,0.47
2018-02-01T23:44:35.280Z,0.53
2018-02-01T23:47:03.604Z,0.54
2018-02-01T23:49:31.979Z,0.41
2018-02-01T23:52:00.311Z,0.38
2018-02-01T23:54:28.692Z,0.42
2018-02-01T23:56:57.026Z,0.43
2018-02-01T23:59:26.495Z,0.39
